Time;durP1;ratioP1;P1;durP2;ratioP2;P2;SDS_P1;SDS_P2;PMS_P1;PMS_P2;Temp;Humidity;BMP_temperature;BMP_pressure;BME280_temperature;BME280_humidity;BME280_pressure;Samples;Min_cycle;Max_cycle;Signal;HPM_P1;HPM_P2
2023/01/09 00:01:57;;;;;;;10.20;3.15;;;;;;;16.41;60.39;101371.28;5031707;28;20100;-58
2023/01/09 00:04:23;;;;;;;11.45;2.65;;;;;;;16.36;59.95;101368.44;5033582;28;20528;-59
2023/01/09 00:06:52;;;;;;;10.48;3.13;;;;;;;16.36;60.11;101369.25;5031404;28;20033;-59
2023/01/09 00:09:21;;;;;;;14.25;3.60;;;;;;;16.34;61.12;101370.56;5033100;28;20048;-59
2023/01/09 00:11:48;;;;;;;15.23;3.78;;;;;;;16.25;61.01;101359.25;5031791;28;20037;-59
2023/01/09 00:14:16;;;;;;;17.02;3.45;;;;;;;16.31;61.18;101366.44;5033401;28;20108;-59
2023/01/09 00:16:42;;;;;;;13.80;3.20;;;;;;;16.29;61.82;101365.84;5031923;28;20104;-59
2023/01/09 00:19:09;;;;;;;12.57;3.22;;;;;;;16.32;61.85;101372.66;5032508;28;20032;-59
2023/01/09 00:21:36;;;;;;;16.48;4.22;;;;;;;16.33;61.53;101379.72;5017580;28;20111;-58
2023/01/09 00:24:04;;;;;;;16.35;3.10;;;;;;;16.26;62.10;101368.19;5032690;28;20057;-59
2023/01/09 00:26:30;;;;;;;8.77;2.92;;;;;;;16.22;62.59;101356.22;5018302;28;20100;-59
2023/01/09 00:28:56;;;;;;;16.45;3.17;;;;;;;16.13;62.50;101355.69;5029199;28;20038;-63
2023/01/09 00:31:23;;;;;;;18.42;3.28;;;;;;;15.78;63.23;101352.88;5029621;28;20422;-60
2023/01/09 00:33:59;;;;;;;15.38;3.95;;;;;;;15.97;63.07;101354.47;5032756;28;20029;-60
2023/01/09 00:36:25;;;;;;;15.60;3.83;;;;;;;15.95;63.12;101356.59;5048506;28;20021;-59
2023/01/09 00:38:51;;;;;;;19.67;3.83;;;;;;;15.92;63.53;101353.50;5032477;28;20030;-60
2023/01/09 00:41:23;;;;;;;13.90;3.25;;;;;;;16.03;63.19;101361.66;5029962;28;20049;-60
2023/01/09 00:44:00;;;;;;;13.27;3.80;;;;;;;16.07;62.60;101356.63;5012478;28;20021;-61
2023/01/09 00:46:32;;;;;;;17.20;4.00;;;;;;;15.93;63.19;101350.56;5013186;28;20032;-60
2023/01/09 00:49:01;;;;;;;13.13;3.92;;;;;;;15.92;63.25;101345.41;5015118;28;20029;-57
2023/01/09 00:51:27;;;;;;;11.43;3.35;;;;;;;15.88;63.36;101345.06;5032179;28;20059;-60
2023/01/09 00:53:53;;;;;;;11.63;4.05;;;;;;;15.86;63.44;101332.81;5032047;28;20029;-59
2023/01/09 00:56:21;;;;;;;12.50;3.17;;;;;;;15.92;63.45;101331.91;5031960;28;20446;-57
2023/01/09 00:58:48;;;;;;;15.73;4.03;;;;;;;15.81;63.53;101334.31;5030235;28;20026;-58
2023/01/09 01:01:15;;;;;;;10.40;3.53;;;;;;;15.80;63.72;101342.66;5023990;28;20021;-58
2023/01/09 01:03:41;;;;;;;12.25;3.88;;;;;;;15.63;65.03;101336.25;5031854;28;20029;-57
2023/01/09 01:08:54;;;;;;;12.88;3.53;;;;;;;15.66;64.61;101344.72;5012464;28;20545;-58
2023/01/09 01:11:21;;;;;;;15.02;3.53;;;;;;;15.61;64.75;101354.53;5028230;28;20052;-57
2023/01/09 01:13:48;;;;;;;16.77;4.15;;;;;;;15.58;65.15;101351.22;5032202;28;20485;-57
2023/01/09 01:16:14;;;;;;;13.77;3.95;;;;;;;15.55;65.35;101357.06;5031040;28;20034;-57
2023/01/09 01:18:40;;;;;;;18.08;4.75;;;;;;;15.56;65.32;101356.00;5032023;28;20026;-58
2023/01/09 01:21:08;;;;;;;32.42;7.78;;;;;;;15.64;65.99;101354.91;5030022;28;20026;-57
2023/01/09 01:23:35;;;;;;;26.00;5.55;;;;;;;15.50;66.40;101364.19;5031995;28;20413;-57
2023/01/09 01:26:13;;;;;;;17.60;4.95;;;;;;;15.44;66.53;101360.53;5030000;28;20034;-57
2023/01/09 01:28:41;;;;;;;21.85;6.35;;;;;;;15.43;67.08;101348.06;5031744;28;20069;-57
2023/01/09 01:31:08;;;;;;;23.70;5.78;;;;;;;15.35;67.51;101331.38;5030514;28;20106;-57
2023/01/09 01:33:35;;;;;;;23.77;5.68;;;;;;;15.30;68.01;101318.56;5030807;28;20116;-57
2023/01/09 01:36:04;;;;;;;27.80;6.18;;;;;;;14.94;70.54;101301.34;5028541;28;20110;-57
2023/01/09 01:38:31;;;;;;;20.38;6.32;;;;;;;15.08;70.12;101285.00;5016831;28;20021;-57
2023/01/09 01:40:58;;;;;;;23.67;6.28;;;;;;;14.99;70.57;101271.00;5018991;28;20091;-57
2023/01/09 01:43:24;;;;;;;21.48;5.82;;;;;;;15.03;70.97;101262.25;5018334;28;20121;-57
2023/01/09 01:45:51;;;;;;;26.40;6.38;;;;;;;15.06;70.93;101252.91;5016991;28;20026;-57
2023/01/09 01:48:29;;;;;;;28.58;7.00;;;;;;;15.21;70.31;101257.88;5031116;28;20040;-58
2023/01/09 01:51:06;;;;;;;23.40;7.35;;;;;;;15.11;70.54;101247.66;5025025;28;20026;-57
2023/01/09 01:53:43;;;;;;;16.58;6.45;;;;;;;15.11;69.89;101250.34;5029152;28;20078;-57
2023/01/09 01:56:36;;;;;;;23.35;5.97;;;;;;;14.94;69.82;101244.75;5022205;28;20052;-57
2023/01/09 01:59:06;;;;;;;13.80;4.75;;;;;;;14.95;69.95;101246.38;5005464;28;20112;-58
2023/01/09 02:01:35;;;;;;;19.33;5.55;;;;;;;15.12;69.09;101238.50;5027082;28;20599;-57
2023/01/09 02:04:02;;;;;;;13.35;5.50;;;;;;;15.14;68.45;101240.97;5031560;28;20033;-57
2023/01/09 02:06:31;;;;;;;13.05;4.85;;;;;;;14.81;69.05;101244.88;5025919;28;20026;-57
2023/01/09 02:08:58;;;;;;;19.65;4.93;;;;;;;14.85;69.07;101251.47;5031485;28;20025;-58
2023/01/09 02:11:24;;;;;;;13.23;5.05;;;;;;;14.84;68.89;101246.31;5030668;28;20075;-58
2023/01/09 02:13:51;;;;;;;13.70;3.65;;;;;;;14.68;68.95;101226.16;5031432;28;20026;-58
2023/01/09 02:16:17;;;;;;;9.57;3.92;;;;;;;14.58;68.79;101205.13;5031142;28;20061;-58
2023/01/09 02:18:59;;;;;;;11.68;3.55;;;;;;;14.57;68.69;101198.09;5035391;28;20029;-58
2023/01/09 02:21:54;;;;;;;11.00;3.25;;;;;;;14.69;68.30;101206.25;5033122;28;20059;-58
2023/01/09 02:24:41;;;;;;;9.10;2.87;;;;;;;14.62;68.55;101202.81;5035331;28;20026;-58
2023/01/09 02:27:34;;;;;;;9.18;3.13;;;;;;;14.64;68.41;101193.44;5035366;28;20516;-58
2023/01/09 02:30:25;;;;;;;12.43;3.63;;;;;;;14.63;68.50;101201.75;5032936;28;20038;-58
2023/01/09 02:33:16;;;;;;;9.93;3.85;;;;;;;14.69;68.03;101211.63;5033783;28;20047;-58
2023/01/09 02:36:00;;;;;;;7.22;3.08;;;;;;;14.56;68.62;101214.47;5034067;28;20037;-58
2023/01/09 02:38:55;;;;;;;8.65;3.38;;;;;;;14.67;67.54;101213.75;5026896;28;20017;-57
2023/01/09 02:41:37;;;;;;;10.68;3.90;;;;;;;14.67;67.85;101219.94;5025562;28;20058;-57
2023/01/09 02:44:23;;;;;;;15.15;4.03;;;;;;;14.47;68.40;101212.06;5024786;28;20030;-58
2023/01/09 02:47:19;;;;;;;8.95;4.10;;;;;;;14.60;68.03;101221.06;5029038;28;20553;-57
2023/01/09 02:50:07;;;;;;;14.80;4.32;;;;;;;14.52;68.10;101216.78;5015737;28;20107;-57
2023/01/09 02:52:53;;;;;;;12.48;2.92;;;;;;;14.51;67.63;101202.50;5016661;28;20513;-57
2023/01/09 02:55:54;;;;;;;9.88;2.90;;;;;;;14.51;67.63;101177.44;5030475;28;20037;-57
2023/01/09 02:58:41;;;;;;;9.18;2.83;;;;;;;14.68;66.82;101166.88;5014422;28;20033;-57
2023/01/09 03:01:10;;;;;;;5.78;2.13;;;;;;;14.53;66.38;101180.72;5028197;28;20064;-57
2023/01/09 03:03:48;;;;;;;7.53;2.55;;;;;;;14.56;67.05;101227.94;5034238;28;20060;-57
2023/01/09 03:06:26;;;;;;;9.65;2.60;;;;;;;14.65;66.61;101223.91;5032796;28;20029;-57
2023/01/09 03:08:58;;;;;;;7.18;1.92;;;;;;;14.62;66.87;101211.72;5033726;28;20044;-57
2023/01/09 03:11:30;;;;;;;7.03;2.00;;;;;;;14.80;65.93;101202.81;5032817;28;20075;-57
2023/01/09 03:14:02;;;;;;;8.20;2.08;;;;;;;14.64;66.76;101195.31;5033812;28;20043;-57
2023/01/09 03:16:35;;;;;;;4.60;2.08;;;;;;;14.63;66.45;101185.59;5032364;28;20029;-57
2023/01/09 03:19:05;;;;;;;8.32;2.72;;;;;;;14.62;66.56;101183.94;5033566;28;20040;-57
2023/01/09 03:21:33;;;;;;;7.55;1.90;;;;;;;14.70;66.43;101197.09;5032449;28;20467;-57
2023/01/09 03:24:01;;;;;;;7.00;2.00;;;;;;;14.67;66.53;101211.03;5033762;28;20484;-57
2023/01/09 03:26:29;;;;;;;5.88;2.33;;;;;;;14.67;66.64;101193.00;5031706;28;20104;-57
2023/01/09 03:28:56;;;;;;;7.93;2.28;;;;;;;14.73;66.64;101197.50;5033002;28;20036;-57
2023/01/09 03:31:23;;;;;;;6.32;1.73;;;;;;;14.82;66.48;101189.91;5031765;28;20034;-57
2023/01/09 03:33:49;;;;;;;4.82;2.03;;;;;;;14.69;66.30;101190.91;5033450;28;20394;-57
2023/01/09 03:36:18;;;;;;;5.97;1.92;;;;;;;14.57;66.03;101202.66;5014292;28;20524;-57
2023/01/09 03:38:44;;;;;;;5.95;2.00;;;;;;;14.65;66.21;101186.19;5033212;28;20060;-58
2023/01/09 03:41:10;;;;;;;7.10;2.08;;;;;;;14.51;66.65;101186.34;5032382;28;20080;-57
2023/01/09 03:43:37;;;;;;;6.72;1.88;;;;;;;14.70;66.41;101178.25;5032086;28;20576;-57
2023/01/09 03:46:04;;;;;;;6.65;2.08;;;;;;;14.71;66.37;101183.44;5033479;28;20064;-58
2023/01/09 03:48:31;;;;;;;5.53;1.77;;;;;;;14.69;66.45;101176.59;5031700;28;20029;-57
2023/01/09 03:50:57;;;;;;;7.88;2.08;;;;;;;14.79;66.12;101166.13;5033591;28;20034;-57
2023/01/09 03:53:25;;;;;;;7.60;1.95;;;;;;;14.84;66.27;101155.50;5031888;28;20033;-58
2023/01/09 03:55:54;;;;;;;4.47;1.50;;;;;;;14.85;66.32;101150.94;5033500;28;20038;-58
2023/01/09 03:58:22;;;;;;;6.13;1.95;;;;;;;14.90;66.18;101140.28;5032796;28;20422;-57
2023/01/09 04:00:49;;;;;;;6.13;2.00;;;;;;;14.79;66.15;101120.31;5032907;28;20034;-57
2023/01/09 04:03:16;;;;;;;8.82;1.70;;;;;;;14.72;66.29;101103.44;5033313;28;20018;-57
2023/01/09 04:05:44;;;;;;;5.20;1.60;;;;;;;14.82;66.44;101103.69;5032274;28;20382;-57
2023/01/09 04:08:11;;;;;;;9.18;2.08;;;;;;;14.81;66.10;101093.13;5033000;28;20026;-57
2023/01/09 04:10:37;;;;;;;8.00;1.90;;;;;;;14.65;66.67;101102.66;5031079;28;20375;-57
2023/01/09 04:13:03;;;;;;;5.63;1.45;;;;;;;14.70;66.85;101084.78;5031503;28;20482;-57
2023/01/09 04:15:29;;;;;;;3.72;1.52;;;;;;;14.56;67.66;101096.78;5032976;28;20037;-57
2023/01/09 04:17:56;;;;;;;8.85;1.50;;;;;;;14.59;68.19;101100.88;5031493;28;20029;-57
2023/01/09 04:20:22;;;;;;;2.85;1.52;;;;;;;14.49;69.19;101098.72;5032592;28;20038;-57
2023/01/09 04:22:48;;;;;;;5.40;1.90;;;;;;;14.43;69.94;101095.00;5033010;28;20485;-57
2023/01/09 04:25:14;;;;;;;6.03;1.25;;;;;;;14.49;70.58;101104.94;5031403;28;20048;-57
2023/01/09 04:27:41;;;;;;;4.00;1.17;;;;;;;14.44;71.07;101099.38;5032876;28;20026;-57
2023/01/09 04:30:08;;;;;;;9.52;1.67;;;;;;;14.53;71.14;101089.13;5030607;28;20104;-57
2023/01/09 04:32:34;;;;;;;4.35;1.50;;;;;;;14.51;71.09;101086.69;5024249;28;20034;-57
2023/01/09 04:35:03;;;;;;;6.35;1.50;;;;;;;14.49;71.71;101090.63;5027122;28;20056;-57
2023/01/09 04:37:29;;;;;;;6.93;2.33;;;;;;;14.46;72.12;101093.75;5031558;28;20029;-57
2023/01/09 04:39:56;;;;;;;4.55;1.30;;;;;;;14.36;73.20;101096.97;5025034;28;20300;-57
2023/01/09 04:42:23;;;;;;;6.15;1.85;;;;;;;14.30;74.60;101084.41;5037065;22;20051;-57
2023/01/09 04:44:52;;;;;;;4.63;1.65;;;;;;;14.36;74.35;101077.28;5050529;28;20119;-57
2023/01/09 04:47:20;;;;;;;7.28;1.85;;;;;;;14.20;75.55;101084.91;5032398;28;20071;-57
2023/01/09 04:49:46;;;;;;;7.15;1.73;;;;;;;14.23;76.17;101081.78;5032692;28;20094;-57
2023/01/09 04:52:13;;;;;;;6.85;1.73;;;;;;;14.04;77.75;101079.31;5031528;28;20026;-57
2023/01/09 04:54:39;;;;;;;5.95;1.70;;;;;;;13.97;78.32;101079.38;5032518;28;20048;-57
2023/01/09 04:57:06;;;;;;;6.18;1.60;;;;;;;14.09;78.63;101077.59;5031815;28;20029;-57
2023/01/09 04:59:32;;;;;;;6.50;1.90;;;;;;;14.05;79.38;101079.09;5032119;28;20041;-58
2023/01/09 05:01:59;;;;;;;6.20;1.70;;;;;;;14.11;79.15;101067.44;5031596;28;20029;-58
2023/01/09 05:04:26;;;;;;;2.92;1.73;;;;;;;14.11;79.57;101069.31;5032354;28;20043;-57
2023/01/09 05:06:52;;;;;;;5.45;1.92;;;;;;;14.00;80.53;101079.75;5030477;28;20034;-58
2023/01/09 05:09:19;;;;;;;5.40;1.77;;;;;;;14.06;80.38;101078.06;5032034;28;20060;-57
2023/01/09 05:11:45;;;;;;;6.68;2.20;;;;;;;14.00;80.86;101078.94;5030055;28;20581;-57
2023/01/09 05:14:11;;;;;;;5.25;1.63;;;;;;;13.78;82.05;101075.03;5032446;28;20120;-57
2023/01/09 05:16:38;;;;;;;9.95;2.30;;;;;;;13.64;83.39;101074.31;5029810;28;20024;-57
2023/01/09 05:19:04;;;;;;;6.93;2.25;;;;;;;13.52;84.34;101070.69;5011423;28;20065;-57
2023/01/09 05:21:30;;;;;;;4.72;2.03;;;;;;;13.33;85.56;101062.56;5018758;28;20759;-57
2023/01/09 05:23:56;;;;;;;5.38;2.15;;;;;;;13.37;86.59;101063.75;5020000;28;20095;-58
2023/01/09 05:26:23;;;;;;;9.30;2.15;;;;;;;13.36;87.06;101064.81;5017200;28;20429;-57
2023/01/09 05:28:51;;;;;;;5.10;2.03;;;;;;;13.29;87.93;101045.22;5031682;28;20112;-57
2023/01/09 05:31:18;;;;;;;5.40;2.08;;;;;;;13.25;88.34;101046.69;5030686;28;20032;-58
2023/01/09 05:33:45;;;;;;;6.05;2.05;;;;;;;12.99;89.83;101042.28;5031686;28;20029;-57
2023/01/09 05:36:11;;;;;;;4.53;2.08;;;;;;;13.22;89.55;101039.09;5020594;28;20108;-57
2023/01/09 05:38:37;;;;;;;5.68;2.47;;;;;;;13.06;89.92;101026.16;5031470;28;20025;-57
2023/01/09 05:41:04;;;;;;;5.97;1.77;;;;;;;13.19;88.88;101020.66;5030147;28;20033;-57
2023/01/09 05:43:30;;;;;;;3.28;1.40;;;;;;;13.17;88.60;101009.31;5031547;28;20144;-57
2023/01/09 05:45:56;;;;;;;4.15;1.70;;;;;;;13.13;89.03;101002.72;5030638;28;20495;-57
2023/01/09 05:48:23;;;;;;;6.50;1.55;;;;;;;13.17;88.41;101004.75;5030479;28;20026;-58
2023/01/09 05:50:49;;;;;;;4.95;1.60;;;;;;;13.00;89.44;100992.91;5032911;28;20033;-57
2023/01/09 05:53:15;;;;;;;3.88;1.35;;;;;;;13.22;88.23;101001.47;5032020;28;20065;-58
2023/01/09 05:55:42;;;;;;;4.13;1.25;;;;;;;13.05;88.81;100992.25;5035577;28;20029;-58
2023/01/09 05:58:08;;;;;;;8.05;1.00;;;;;;;12.89;89.48;100982.88;5033717;28;20620;-58
2023/01/09 06:00:34;;;;;;;3.80;1.00;;;;;;;13.03;89.22;100983.56;5033806;28;20462;-58
2023/01/09 06:03:00;;;;;;;2.92;1.45;;;;;;;13.03;89.10;100989.78;5035496;28;20070;-58
2023/01/09 06:05:27;;;;;;;6.28;1.67;;;;;;;13.11;88.96;100980.63;5016589;28;20438;-58
2023/01/09 06:07:53;;;;;;;4.95;1.40;;;;;;;12.97;89.94;100982.59;5035215;28;20033;-58
2023/01/09 06:10:19;;;;;;;2.42;0.98;;;;;;;13.10;89.72;100984.34;5033888;28;20040;-58
2023/01/09 06:12:50;;;;;;;4.30;1.38;;;;;;;12.99;89.81;100985.06;5022370;28;20026;-58
2023/01/09 06:15:19;;;;;;;4.47;1.15;;;;;;;13.03;89.60;100983.56;5028633;28;20037;-58
2023/01/09 06:17:46;;;;;;;5.72;1.08;;;;;;;12.94;89.59;100974.97;5035143;28;20025;-58
2023/01/09 06:20:12;;;;;;;4.18;1.17;;;;;;;12.96;89.74;100983.63;5033357;28;20062;-58
2023/01/09 06:22:38;;;;;;;2.58;0.90;;;;;;;12.88;89.45;100968.63;5035054;28;20033;-58
2023/01/09 06:25:05;;;;;;;4.88;1.20;;;;;;;12.82;89.79;100974.00;5033130;28;20440;-58
2023/01/09 06:27:31;;;;;;;4.13;1.10;;;;;;;12.77;90.56;100974.69;5034930;28;20033;-57
2023/01/09 06:29:57;;;;;;;2.10;1.10;;;;;;;12.84;90.95;100966.56;5033534;28;20036;-58
2023/01/09 06:32:24;;;;;;;3.50;1.40;;;;;;;12.93;90.65;100946.44;5034922;28;20051;-58
2023/01/09 06:34:50;;;;;;;7.75;1.10;;;;;;;12.79;91.56;100929.63;5033865;28;20430;-58
2023/01/09 06:37:16;;;;;;;5.55;1.25;;;;;;;12.76;91.84;100911.25;5033444;28;20104;-58
2023/01/09 06:39:42;;;;;;;5.78;1.60;;;;;;;12.72;92.05;100887.75;5033724;28;20549;-58
2023/01/09 06:42:08;;;;;;;4.18;1.17;;;;;;;12.80;91.68;100888.28;5034699;28;20033;-59
2023/01/09 06:44:35;;;;;;;2.65;1.45;;;;;;;12.73;92.17;100884.84;5031598;28;20036;-58
2023/01/09 06:47:04;;;;;;;6.55;1.23;;;;;;;12.84;91.61;100870.69;5034411;28;20112;-58
2023/01/09 06:49:30;;;;;;;4.50;1.20;;;;;;;12.76;91.69;100875.50;5033285;28;20358;-57
2023/01/09 06:51:57;;;;;;;3.63;1.42;;;;;;;12.72;92.30;100872.47;5034498;28;20381;-58
2023/01/09 06:54:23;;;;;;;2.70;1.23;;;;;;;12.78;92.16;100868.88;5033124;28;20037;-58
2023/01/09 06:56:49;;;;;;;7.20;1.60;;;;;;;12.85;91.58;100858.91;5033635;28;20027;-58
2023/01/09 06:59:16;;;;;;;5.25;1.23;;;;;;;12.90;90.94;100856.38;5034384;28;20018;-58
2023/01/09 07:01:42;;;;;;;5.35;1.33;;;;;;;13.00;90.68;100855.06;5031095;28;20120;-58
2023/01/09 07:04:11;;;;;;;3.35;1.40;;;;;;;12.94;90.86;100841.47;5034157;28;20425;-58
2023/01/09 07:06:38;;;;;;;3.00;1.10;;;;;;;12.94;90.85;100832.59;5032315;28;20045;-58
2023/01/09 07:09:11;;;;;;;4.03;1.42;;;;;;;12.89;90.62;100830.56;5034065;28;20068;-58
2023/01/09 07:11:39;;;;;;;3.72;1.17;;;;;;;13.03;90.63;100815.13;5029208;28;20033;-58
2023/01/09 07:14:05;;;;;;;3.95;1.45;;;;;;;13.04;90.44;100813.25;5014516;28;20080;-58
2023/01/09 07:16:32;;;;;;;2.60;1.23;;;;;;;12.90;90.68;100810.72;5026806;28;20029;-58
2023/01/09 07:18:58;;;;;;;5.68;0.98;;;;;;;12.95;90.88;100807.34;5034023;28;20029;-58
2023/01/09 07:21:25;;;;;;;4.38;1.00;;;;;;;13.02;90.73;100797.34;5031837;28;20060;-58
2023/01/09 07:23:51;;;;;;;2.42;1.17;;;;;;;13.03;90.86;100777.50;5034356;28;20474;-58
2023/01/09 07:26:17;;;;;;;3.75;1.10;;;;;;;12.97;91.35;100772.19;5031988;28;20064;-58
2023/01/09 07:28:43;;;;;;;4.03;1.17;;;;;;;12.98;91.64;100757.72;5033366;28;20108;-58
2023/01/09 07:31:09;;;;;;;4.38;1.05;;;;;;;12.99;91.45;100749.44;5032116;28;20064;-58
2023/01/09 07:33:36;;;;;;;4.32;0.85;;;;;;;13.06;91.88;100733.25;5033927;28;20513;-58
2023/01/09 07:36:02;;;;;;;2.92;0.90;;;;;;;13.04;92.25;100729.94;5031017;28;20049;-57
2023/01/09 07:38:28;;;;;;;3.65;0.75;;;;;;;12.98;93.52;100720.09;5033260;28;20036;-58
2023/01/09 07:40:54;;;;;;;4.30;0.80;;;;;;;13.04;93.87;100717.34;5030649;28;20037;-58
2023/01/09 07:43:21;;;;;;;3.92;1.10;;;;;;;13.04;93.93;100714.66;5033329;28;20520;-58
2023/01/09 07:45:47;;;;;;;4.63;0.70;;;;;;;12.98;94.07;100709.34;5031668;28;20409;-57
2023/01/09 07:48:13;;;;;;;4.00;1.00;;;;;;;13.05;94.52;100713.63;5033295;28;20486;-58
2023/01/09 07:50:40;;;;;;;9.60;1.00;;;;;;;13.05;94.43;100696.69;5031673;28;20029;-58
2023/01/09 07:53:06;;;;;;;3.47;0.80;;;;;;;13.05;94.65;100688.63;5033516;28;20501;-58
2023/01/09 07:55:32;;;;;;;1.88;0.68;;;;;;;13.06;95.07;100682.19;5032227;28;20026;-58
2023/01/09 07:57:58;;;;;;;2.55;1.00;;;;;;;13.14;94.15;100671.94;5033248;28;20030;-58
2023/01/09 08:00:24;;;;;;;1.75;0.57;;;;;;;13.20;94.26;100672.91;5032220;28;20057;-57
2023/01/09 08:02:52;;;;;;;2.50;1.10;;;;;;;13.32;93.76;100667.59;5033204;28;20404;-57
2023/01/09 08:05:19;;;;;;;1.35;0.80;;;;;;;13.25;94.13;100659.63;5031916;28;20424;-58
2023/01/09 08:07:45;;;;;;;3.72;0.82;;;;;;;13.18;95.17;100653.50;5033077;28;20030;-58
2023/01/09 08:10:12;;;;;;;4.05;0.77;;;;;;;13.17;95.70;100638.44;5031433;28;20024;-58
2023/01/09 08:12:42;;;;;;;2.92;0.73;;;;;;;13.12;96.07;100643.66;5032749;28;20064;-58
2023/01/09 08:15:09;;;;;;;2.88;0.80;;;;;;;13.23;95.78;100621.44;5013985;28;20533;-58
2023/01/09 08:17:35;;;;;;;6.57;0.95;;;;;;;13.10;96.31;100600.06;5032937;28;20092;-58
2023/01/09 08:20:02;;;;;;;2.40;1.08;;;;;;;13.18;96.71;100586.31;5031234;28;20033;-57
2023/01/09 08:22:29;;;;;;;3.08;0.80;;;;;;;13.13;96.75;100599.63;5032621;28;20045;-57
2023/01/09 08:24:55;;;;;;;4.30;0.77;;;;;;;13.28;95.98;100592.00;5031631;28;20293;-58
2023/01/09 08:27:21;;;;;;;2.92;0.68;;;;;;;13.26;96.18;100594.06;5012994;28;20061;-57
2023/01/09 08:29:47;;;;;;;2.70;0.80;;;;;;;13.25;95.88;100608.56;5012905;28;20022;-57
2023/01/09 08:32:14;;;;;;;3.33;0.85;;;;;;;13.15;96.51;100579.53;5031649;28;20029;-57
2023/01/09 08:34:40;;;;;;;3.08;0.73;;;;;;;13.22;96.22;100554.47;5030243;28;20022;-57
2023/01/09 08:37:06;;;;;;;3.55;0.80;;;;;;;13.22;96.32;100527.59;5032729;28;20087;-58
2023/01/09 08:39:32;;;;;;;2.05;0.80;;;;;;;13.21;96.50;100537.50;5030695;28;20022;-58
2023/01/09 08:47:32;;;;;;;3.63;0.70;;;;;;;13.34;95.33;100523.06;5032394;28;20516;-58
2023/01/09 08:49:58;;;;;;;3.78;0.80;;;;;;;13.24;95.65;100514.75;5031338;28;20474;-58
2023/01/09 08:52:25;;;;;;;4.53;0.88;;;;;;;13.40;94.87;100509.50;5032173;28;20029;-58
2023/01/09 08:54:51;;;;;;;6.43;0.90;;;;;;;13.26;95.79;100480.38;5030871;28;20022;-58
2023/01/09 08:57:18;;;;;;;4.80;1.10;;;;;;;13.35;94.82;100463.69;5032013;28;20061;-58
2023/01/09 08:59:44;;;;;;;2.63;0.90;;;;;;;13.25;94.62;100457.25;5030417;28;20036;-58
2023/01/09 09:02:10;;;;;;;3.03;0.98;;;;;;;13.23;94.78;100449.41;5032335;28;20037;-58
2023/01/09 09:04:36;;;;;;;3.63;1.08;;;;;;;13.23;94.69;100427.91;5030690;28;20486;-58
2023/01/09 09:07:02;;;;;;;4.05;1.15;;;;;;;13.35;94.11;100419.84;5032300;28;20120;-59
2023/01/09 09:09:29;;;;;;;3.40;1.00;;;;;;;13.33;94.29;100438.91;5030219;28;20038;-58
2023/01/09 09:11:55;;;;;;;4.15;1.23;;;;;;;13.20;94.00;100465.97;5032085;28;20021;-58
2023/01/09 09:17:06;;;;;;;5.30;1.08;;;;;;;13.30;93.98;100509.25;5032288;28;20504;-59
2023/01/09 09:19:32;;;;;;;4.22;1.08;;;;;;;13.32;93.95;100496.38;5030395;28;20056;-58
2023/01/09 09:21:58;;;;;;;4.32;1.13;;;;;;;13.26;94.35;100489.25;5032059;28;20155;-58
2023/01/09 09:24:24;;;;;;;4.07;1.02;;;;;;;13.33;94.61;100502.59;5030228;28;20041;-59
2023/01/09 09:26:50;;;;;;;4.35;1.08;;;;;;;13.27;94.56;100485.53;5031628;28;20029;-59
2023/01/09 19:30:40;;;;;;;24.88;4.53;;;;;;;14.95;68.48;100877.13;5087740;27;20482;-46
2023/01/09 19:33:07;;;;;;;28.05;5.25;;;;;;;14.96;69.86;100877.94;5068911;28;20219;-45
2023/01/09 19:35:33;;;;;;;17.08;4.70;;;;;;;15.00;69.86;100877.25;5068850;28;20033;-45
2023/01/09 19:38:00;;;;;;;24.05;6.07;;;;;;;15.11;68.77;100878.28;5068820;28;20028;-45
2023/01/09 19:40:26;;;;;;;22.98;5.05;;;;;;;15.26;70.28;100885.88;5068447;28;20037;-45
2023/01/09 19:42:53;;;;;;;21.10;5.43;;;;;;;15.34;66.90;100885.53;5068721;28;20466;-46
2023/01/09 19:45:20;;;;;;;16.25;4.70;;;;;;;15.26;68.79;100880.50;5068872;28;20036;-45
2023/01/09 19:47:48;;;;;;;30.27;5.40;;;;;;;15.42;66.04;100887.88;5068665;28;20025;-45
2023/01/09 19:50:16;;;;;;;16.58;5.38;;;;;;;15.36;68.96;100890.69;5068267;28;20416;-49
2023/01/09 19:52:43;;;;;;;28.33;5.57;;;;;;;15.34;66.36;100899.03;5068710;28;20025;-45
2023/01/09 19:55:13;;;;;;;22.08;5.55;;;;;;;15.38;66.62;100908.28;5068488;28;20021;-47
2023/01/09 19:57:43;;;;;;;22.10;5.28;;;;;;;15.47;68.73;100898.75;5068473;28;20116;-47
2023/01/09 20:00:13;;;;;;;22.05;5.32;;;;;;;15.59;69.69;100882.56;5055389;28;20082;-45
2023/01/09 20:02:41;;;;;;;23.90;6.25;;;;;;;15.66;68.29;100877.09;5047863;28;20384;-45
2023/01/09 20:05:08;;;;;;;22.27;4.97;;;;;;;15.71;68.67;100869.06;5048397;28;20029;-45
2023/01/09 20:07:34;;;;;;;22.63;5.65;;;;;;;15.80;70.27;100864.94;5046521;28;20026;-45
2023/01/09 20:10:00;;;;;;;24.85;6.15;;;;;;;15.56;71.18;100875.78;5044991;28;20036;-49
2023/01/09 20:12:27;;;;;;;25.55;5.82;;;;;;;15.73;70.65;100877.75;5035256;28;20096;-48
2023/01/09 20:14:53;;;;;;;26.77;5.63;;;;;;;15.87;71.22;100873.72;5048349;28;20471;-48
2023/01/09 20:17:19;;;;;;;26.42;6.57;;;;;;;15.74;71.86;100868.59;5044244;28;20029;-47
2023/01/09 20:19:46;;;;;;;29.67;6.45;;;;;;;15.62;73.60;100862.38;5040455;28;20388;-47
2023/01/09 20:22:12;;;;;;;29.17;6.40;;;;;;;15.89;73.01;100863.50;5027624;28;20017;-47
2023/01/09 20:24:39;;;;;;;31.02;6.40;;;;;;;15.94;73.68;100862.78;5023809;28;20415;-45
2023/01/09 20:27:05;;;;;;;25.33;6.03;;;;;;;16.17;73.03;100857.28;5027413;28;20030;-46
2023/01/09 20:29:32;;;;;;;23.67;5.70;;;;;;;16.21;71.19;100855.75;5036407;28;20427;-45
2023/01/09 20:32:00;;;;;;;28.55;5.85;;;;;;;16.26;70.15;100844.19;5033797;28;20052;-46
2023/01/09 20:34:26;;;;;;;28.17;5.95;;;;;;;16.43;70.14;100834.22;5032472;28;20096;-47
2023/01/09 20:36:53;;;;;;;31.58;6.50;;;;;;;16.54;69.24;100836.00;5032744;28;20108;-47
2023/01/09 20:39:19;;;;;;;23.75;5.68;;;;;;;16.60;69.05;100832.34;5033936;28;20034;-46
2023/01/09 20:41:46;;;;;;;32.22;6.40;;;;;;;16.73;69.54;100825.00;5016537;28;20037;-48
2023/01/09 20:44:14;;;;;;;24.15;5.78;;;;;;;16.68;67.25;100822.19;5028254;28;20091;-46
2023/01/09 20:46:48;;;;;;;24.70;6.28;;;;;;;16.68;67.01;100816.78;5033745;28;20379;-48
2023/01/09 20:49:17;;;;;;;30.95;6.18;;;;;;;16.71;66.15;100819.00;5034238;28;20033;-51
2023/01/09 20:51:46;;;;;;;30.60;6.70;;;;;;;16.75;67.23;100803.94;5033562;28;20034;-47
2023/01/09 20:54:14;;;;;;;31.17;7.00;;;;;;;16.84;68.21;100807.88;5026290;28;20040;-50
2023/01/09 20:56:40;;;;;;;30.42;6.60;;;;;;;16.93;67.37;100806.38;5033680;28;20038;-46
2023/01/09 20:59:11;;;;;;;31.85;7.28;;;;;;;16.82;66.74;100804.59;5033585;28;20025;-47
2023/01/09 21:01:39;;;;;;;19.83;5.50;;;;;;;17.04;67.87;100802.72;5030052;28;20064;-46
2023/01/09 21:04:06;;;;;;;20.33;5.03;;;;;;;17.09;64.85;100789.28;5027569;28;20514;-47
2023/01/09 21:06:32;;;;;;;24.77;5.72;;;;;;;17.11;63.70;100791.75;5023081;28;20029;-46
2023/01/09 21:08:58;;;;;;;29.02;7.28;;;;;;;17.15;64.63;100790.16;5023730;28;20410;-50
2023/01/09 21:11:24;;;;;;;19.85;5.88;;;;;;;17.08;64.23;100782.25;5028374;28;20029;-46
2023/01/09 21:13:51;;;;;;;33.65;6.20;;;;;;;17.02;63.88;100780.53;5014035;28;20036;-47
2023/01/09 21:16:23;;;;;;;24.45;6.05;;;;;;;17.09;64.15;100770.34;5031221;28;20018;-47
2023/01/09 21:18:50;;;;;;;26.30;5.68;;;;;;;17.20;64.16;100765.06;5032607;28;20391;-50
2023/01/09 21:21:20;;;;;;;21.48;5.75;;;;;;;17.25;62.96;100763.25;5033496;28;20567;-46
2023/01/09 21:23:50;;;;;;;28.38;6.93;;;;;;;17.31;63.33;100759.53;5027203;28;20033;-46
2023/01/09 21:26:21;;;;;;;20.58;5.40;;;;;;;17.19;62.84;100766.16;5015848;28;20022;-50
2023/01/09 21:28:48;;;;;;;30.90;6.47;;;;;;;17.18;62.01;100772.63;5033317;28;20056;-48
2023/01/09 21:31:18;;;;;;;31.25;6.03;;;;;;;17.17;63.22;100766.41;5033295;28;20025;-47
2023/01/09 21:33:44;;;;;;;31.15;5.80;;;;;;;17.29;63.17;100763.56;5016628;28;20034;-47
2023/01/09 21:36:11;;;;;;;33.33;6.72;;;;;;;17.37;64.05;100769.34;5025645;28;20117;-50
2023/01/09 21:38:38;;;;;;;27.38;6.20;;;;;;;17.30;63.84;100781.44;5033487;28;20372;-47
2023/01/09 21:46:51;;;;;;;32.20;6.63;;;;;;;17.24;62.31;100742.69;5016017;28;20080;-49